sensor_id;sensor_type;location;lat;lon;timestamp;P1;durP1;ratioP1;P2;durP2;ratioP2
41275;SDS011;27010;47.718;12.912;2024-01-30T00:01:19;0.67;;;0.37;;
41275;SDS011;27010;47.718;12.912;2024-01-30T00:04:22;0.47;;;0.40;;
41275;SDS011;27010;47.718;12.912;2024-01-30T00:07:24;1.20;;;0.50;;
41275;SDS011;27010;47.718;12.912;2024-01-30T00:10:26;0.53;;;0.30;;
41275;SDS011;27010;47.718;12.912;2024-01-30T00:13:28;0.37;;;0.30;;
41275;SDS011;27010;47.718;12.912;2024-01-30T00:16:30;0.33;;;0.20;;
41275;SDS011;27010;47.718;12.912;2024-01-30T00:19:33;0.70;;;0.30;;
41275;SDS011;27010;47.718;12.912;2024-01-30T00:22:36;0.40;;;0.23;;
41275;SDS011;27010;47.718;12.912;2024-01-30T00:25:38;0.30;;;0.30;;
41275;SDS011;27010;47.718;12.912;2024-01-30T00:28:43;1.17;;;0.40;;
41275;SDS011;27010;47.718;12.912;2024-01-30T00:31:45;0.37;;;0.30;;
41275;SDS011;27010;47.718;12.912;2024-01-30T00:34:47;0.67;;;0.30;;
41275;SDS011;27010;47.718;12.912;2024-01-30T00:37:49;0.20;;;0.20;;
41275;SDS011;27010;47.718;12.912;2024-01-30T00:40:52;0.30;;;0.30;;
41275;SDS011;27010;47.718;12.912;2024-01-30T00:43:54;0.17;;;0.17;;
41275;SDS011;27010;47.718;12.912;2024-01-30T00:46:56;0.40;;;0.33;;
41275;SDS011;27010;47.718;12.912;2024-01-30T00:49:58;0.40;;;0.30;;
41275;SDS011;27010;47.718;12.912;2024-01-30T00:53:00;0.43;;;0.30;;
41275;SDS011;27010;47.718;12.912;2024-01-30T00:56:02;0.27;;;0.27;;
41275;SDS011;27010;47.718;12.912;2024-01-30T00:59:05;0.33;;;0.20;;
41275;SDS011;27010;47.718;12.912;2024-01-30T01:02:07;1.37;;;0.30;;
41275;SDS011;27010;47.718;12.912;2024-01-30T01:05:09;0.30;;;0.23;;
41275;SDS011;27010;47.718;12.912;2024-01-30T01:08:11;0.43;;;0.23;;
41275;SDS011;27010;47.718;12.912;2024-01-30T01:11:13;0.60;;;0.30;;
41275;SDS011;27010;47.718;12.912;2024-01-30T01:14:15;0.27;;;0.20;;
41275;SDS011;27010;47.718;12.912;2024-01-30T01:17:18;0.40;;;0.20;;
41275;SDS011;27010;47.718;12.912;2024-01-30T01:20:21;1.10;;;0.40;;
41275;SDS011;27010;47.718;12.912;2024-01-30T01:23:23;1.97;;;0.37;;
41275;SDS011;27010;47.718;12.912;2024-01-30T01:26:25;0.70;;;0.30;;
41275;SDS011;27010;47.718;12.912;2024-01-30T01:29:27;0.40;;;0.33;;
41275;SDS011;27010;47.718;12.912;2024-01-30T01:32:32;0.93;;;0.43;;
41275;SDS011;27010;47.718;12.912;2024-01-30T01:35:34;0.33;;;0.30;;
41275;SDS011;27010;47.718;12.912;2024-01-30T01:38:36;0.40;;;0.40;;
41275;SDS011;27010;47.718;12.912;2024-01-30T01:41:39;0.53;;;0.27;;
41275;SDS011;27010;47.718;12.912;2024-01-30T01:44:42;1.30;;;0.50;;
41275;SDS011;27010;47.718;12.912;2024-01-30T01:47:44;0.20;;;0.20;;
41275;SDS011;27010;47.718;12.912;2024-01-30T01:50:49;0.13;;;0.13;;
41275;SDS011;27010;47.718;12.912;2024-01-30T01:53:51;0.63;;;0.40;;
41275;SDS011;27010;47.718;12.912;2024-01-30T01:56:53;0.30;;;0.30;;
41275;SDS011;27010;47.718;12.912;2024-01-30T01:59:55;0.40;;;0.30;;
41275;SDS011;27010;47.718;12.912;2024-01-30T02:02:57;0.83;;;0.50;;
41275;SDS011;27010;47.718;12.912;2024-01-30T02:06:00;0.47;;;0.27;;
41275;SDS011;27010;47.718;12.912;2024-01-30T02:09:04;0.20;;;0.20;;
41275;SDS011;27010;47.718;12.912;2024-01-30T02:12:07;0.40;;;0.30;;
41275;SDS011;27010;47.718;12.912;2024-01-30T02:15:12;0.30;;;0.30;;
41275;SDS011;27010;47.718;12.912;2024-01-30T02:18:15;0.40;;;0.30;;
41275;SDS011;27010;47.718;12.912;2024-01-30T02:21:18;0.67;;;0.40;;
41275;SDS011;27010;47.718;12.912;2024-01-30T02:24:21;0.57;;;0.10;;
41275;SDS011;27010;47.718;12.912;2024-01-30T02:27:23;0.30;;;0.30;;
41275;SDS011;27010;47.718;12.912;2024-01-30T02:30:25;0.70;;;0.30;;
41275;SDS011;27010;47.718;12.912;2024-01-30T02:33:27;0.30;;;0.20;;
41275;SDS011;27010;47.718;12.912;2024-01-30T02:36:29;0.27;;;0.27;;
41275;SDS011;27010;47.718;12.912;2024-01-30T02:39:32;0.30;;;0.20;;
41275;SDS011;27010;47.718;12.912;2024-01-30T02:42:34;0.50;;;0.50;;
41275;SDS011;27010;47.718;12.912;2024-01-30T02:45:36;0.43;;;0.30;;
41275;SDS011;27010;47.718;12.912;2024-01-30T02:48:39;0.30;;;0.30;;
41275;SDS011;27010;47.718;12.912;2024-01-30T02:51:41;0.37;;;0.20;;
41275;SDS011;27010;47.718;12.912;2024-01-30T02:54:43;0.23;;;0.20;;
41275;SDS011;27010;47.718;12.912;2024-01-30T02:57:47;1.53;;;0.30;;
41275;SDS011;27010;47.718;12.912;2024-01-30T03:00:49;0.40;;;0.20;;
41275;SDS011;27010;47.718;12.912;2024-01-30T03:03:51;0.20;;;0.20;;
41275;SDS011;27010;47.718;12.912;2024-01-30T03:06:53;0.63;;;0.40;;
41275;SDS011;27010;47.718;12.912;2024-01-30T03:09:56;0.30;;;0.20;;
41275;SDS011;27010;47.718;12.912;2024-01-30T03:12:58;0.20;;;0.20;;
41275;SDS011;27010;47.718;12.912;2024-01-30T03:16:04;0.30;;;0.30;;
41275;SDS011;27010;47.718;12.912;2024-01-30T03:19:06;0.47;;;0.27;;
41275;SDS011;27010;47.718;12.912;2024-01-30T03:22:12;0.73;;;0.53;;
41275;SDS011;27010;47.718;12.912;2024-01-30T03:25:15;0.93;;;0.47;;
41275;SDS011;27010;47.718;12.912;2024-01-30T03:28:17;0.30;;;0.30;;
41275;SDS011;27010;47.718;12.912;2024-01-30T03:31:19;0.20;;;0.20;;
41275;SDS011;27010;47.718;12.912;2024-01-30T03:34:21;0.30;;;0.20;;
41275;SDS011;27010;47.718;12.912;2024-01-30T03:37:24;0.10;;;0.10;;
41275;SDS011;27010;47.718;12.912;2024-01-30T03:40:26;1.70;;;0.40;;
41275;SDS011;27010;47.718;12.912;2024-01-30T03:43:28;0.40;;;0.30;;
41275;SDS011;27010;47.718;12.912;2024-01-30T03:46:30;0.80;;;0.30;;
41275;SDS011;27010;47.718;12.912;2024-01-30T03:49:32;0.77;;;0.30;;
41275;SDS011;27010;47.718;12.912;2024-01-30T03:52:35;0.30;;;0.30;;
41275;SDS011;27010;47.718;12.912;2024-01-30T03:55:37;0.40;;;0.30;;
41275;SDS011;27010;47.718;12.912;2024-01-30T03:58:39;0.30;;;0.30;;
41275;SDS011;27010;47.718;12.912;2024-01-30T04:01:41;0.73;;;0.33;;
41275;SDS011;27010;47.718;12.912;2024-01-30T04:04:43;0.30;;;0.30;;
41275;SDS011;27010;47.718;12.912;2024-01-30T04:07:46;0.80;;;0.80;;
41275;SDS011;27010;47.718;12.912;2024-01-30T04:10:48;0.90;;;0.80;;
41275;SDS011;27010;47.718;12.912;2024-01-30T04:13:51;2.10;;;0.60;;
41275;SDS011;27010;47.718;12.912;2024-01-30T04:16:53;2.53;;;1.77;;
41275;SDS011;27010;47.718;12.912;2024-01-30T04:19:55;0.60;;;0.60;;
41275;SDS011;27010;47.718;12.912;2024-01-30T04:22:58;1.00;;;0.50;;
41275;SDS011;27010;47.718;12.912;2024-01-30T04:26:01;0.30;;;0.30;;
41275;SDS011;27010;47.718;12.912;2024-01-30T04:29:03;2.27;;;2.07;;
41275;SDS011;27010;47.718;12.912;2024-01-30T04:32:05;2.13;;;1.87;;
41275;SDS011;27010;47.718;12.912;2024-01-30T04:35:07;1.27;;;0.90;;
41275;SDS011;27010;47.718;12.912;2024-01-30T04:38:12;2.03;;;1.07;;
41275;SDS011;27010;47.718;12.912;2024-01-30T04:41:16;5.50;;;1.03;;
41275;SDS011;27010;47.718;12.912;2024-01-30T04:44:18;2.00;;;1.10;;
41275;SDS011;27010;47.718;12.912;2024-01-30T04:47:21;0.90;;;0.60;;
41275;SDS011;27010;47.718;12.912;2024-01-30T04:50:23;0.60;;;0.50;;
41275;SDS011;27010;47.718;12.912;2024-01-30T04:53:26;3.30;;;0.70;;
41275;SDS011;27010;47.718;12.912;2024-01-30T04:56:28;0.90;;;0.70;;
41275;SDS011;27010;47.718;12.912;2024-01-30T04:59:30;8.57;;;1.23;;
41275;SDS011;27010;47.718;12.912;2024-01-30T05:02:32;1.50;;;1.10;;
41275;SDS011;27010;47.718;12.912;2024-01-30T05:05:34;4.07;;;0.60;;
41275;SDS011;27010;47.718;12.912;2024-01-30T05:08:37;1.00;;;0.33;;
41275;SDS011;27010;47.718;12.912;2024-01-30T05:11:39;0.43;;;0.30;;
41275;SDS011;27010;47.718;12.912;2024-01-30T05:14:41;1.33;;;0.40;;
41275;SDS011;27010;47.718;12.912;2024-01-30T05:17:43;1.07;;;0.60;;
41275;SDS011;27010;47.718;12.912;2024-01-30T05:20:45;1.17;;;0.50;;
41275;SDS011;27010;47.718;12.912;2024-01-30T05:23:47;4.43;;;0.50;;
41275;SDS011;27010;47.718;12.912;2024-01-30T05:26:49;0.77;;;0.70;;
41275;SDS011;27010;47.718;12.912;2024-01-30T05:29:52;0.20;;;0.20;;
41275;SDS011;27010;47.718;12.912;2024-01-30T05:32:55;0.67;;;0.50;;
41275;SDS011;27010;47.718;12.912;2024-01-30T05:35:57;1.07;;;0.50;;
41275;SDS011;27010;47.718;12.912;2024-01-30T05:38:59;1.43;;;0.43;;
41275;SDS011;27010;47.718;12.912;2024-01-30T05:42:01;0.80;;;0.67;;
41275;SDS011;27010;47.718;12.912;2024-01-30T05:45:04;0.83;;;0.60;;
41275;SDS011;27010;47.718;12.912;2024-01-30T05:48:07;2.00;;;0.47;;
41275;SDS011;27010;47.718;12.912;2024-01-30T05:51:09;1.73;;;0.80;;
41275;SDS011;27010;47.718;12.912;2024-01-30T05:54:13;2.83;;;0.30;;
41275;SDS011;27010;47.718;12.912;2024-01-30T05:57:18;3.13;;;0.70;;
41275;SDS011;27010;47.718;12.912;2024-01-30T06:00:20;1.67;;;1.00;;
41275;SDS011;27010;47.718;12.912;2024-01-30T06:03:22;2.60;;;1.00;;
41275;SDS011;27010;47.718;12.912;2024-01-30T06:06:24;1.20;;;0.70;;
41275;SDS011;27010;47.718;12.912;2024-01-30T06:09:28;1.50;;;0.53;;
41275;SDS011;27010;47.718;12.912;2024-01-30T06:12:30;1.60;;;0.70;;
41275;SDS011;27010;47.718;12.912;2024-01-30T06:15:32;4.60;;;0.90;;
41275;SDS011;27010;47.718;12.912;2024-01-30T06:18:34;2.17;;;0.60;;
41275;SDS011;27010;47.718;12.912;2024-01-30T06:21:36;1.27;;;0.63;;
41275;SDS011;27010;47.718;12.912;2024-01-30T06:24:39;2.60;;;0.90;;
41275;SDS011;27010;47.718;12.912;2024-01-30T06:27:42;0.63;;;0.47;;
41275;SDS011;27010;47.718;12.912;2024-01-30T06:30:44;2.00;;;0.87;;
41275;SDS011;27010;47.718;12.912;2024-01-30T06:33:47;2.10;;;0.77;;
41275;SDS011;27010;47.718;12.912;2024-01-30T06:36:49;2.10;;;0.77;;
41275;SDS011;27010;47.718;12.912;2024-01-30T06:39:51;1.00;;;0.70;;
41275;SDS011;27010;47.718;12.912;2024-01-30T06:42:54;0.70;;;0.60;;
41275;SDS011;27010;47.718;12.912;2024-01-30T06:45:56;2.60;;;0.60;;
41275;SDS011;27010;47.718;12.912;2024-01-30T06:48:58;3.23;;;0.57;;
41275;SDS011;27010;47.718;12.912;2024-01-30T06:52:00;0.70;;;0.50;;
41275;SDS011;27010;47.718;12.912;2024-01-30T06:55:03;1.10;;;0.80;;
41275;SDS011;27010;47.718;12.912;2024-01-30T06:58:05;2.07;;;0.80;;
41275;SDS011;27010;47.718;12.912;2024-01-30T07:01:08;1.70;;;0.77;;
41275;SDS011;27010;47.718;12.912;2024-01-30T07:08:34;1.63;;;0.60;;
41275;SDS011;27010;47.718;12.912;2024-01-30T07:11:36;0.50;;;0.30;;
41275;SDS011;27010;47.718;12.912;2024-01-30T07:14:38;0.47;;;0.37;;
41275;SDS011;27010;47.718;12.912;2024-01-30T07:17:41;0.93;;;0.50;;
41275;SDS011;27010;47.718;12.912;2024-01-30T07:20:43;2.87;;;0.60;;
41275;SDS011;27010;47.718;12.912;2024-01-30T07:23:48;0.33;;;0.30;;
41275;SDS011;27010;47.718;12.912;2024-01-30T07:26:51;0.47;;;0.30;;
41275;SDS011;27010;47.718;12.912;2024-01-30T07:29:53;0.97;;;0.50;;
41275;SDS011;27010;47.718;12.912;2024-01-30T07:32:55;1.00;;;0.70;;
41275;SDS011;27010;47.718;12.912;2024-01-30T07:35:57;0.97;;;0.57;;
41275;SDS011;27010;47.718;12.912;2024-01-30T07:38:59;1.20;;;0.80;;
41275;SDS011;27010;47.718;12.912;2024-01-30T07:42:01;1.77;;;0.70;;
41275;SDS011;27010;47.718;12.912;2024-01-30T07:45:07;1.70;;;0.70;;
41275;SDS011;27010;47.718;12.912;2024-01-30T07:48:10;1.47;;;1.00;;
41275;SDS011;27010;47.718;12.912;2024-01-30T07:51:12;1.13;;;0.53;;
41275;SDS011;27010;47.718;12.912;2024-01-30T07:54:14;3.33;;;0.43;;
41275;SDS011;27010;47.718;12.912;2024-01-30T07:57:17;2.73;;;0.50;;
41275;SDS011;27010;47.718;12.912;2024-01-30T08:00:22;1.17;;;0.60;;
41275;SDS011;27010;47.718;12.912;2024-01-30T08:03:25;0.77;;;0.57;;
41275;SDS011;27010;47.718;12.912;2024-01-30T08:06:27;3.33;;;0.70;;
41275;SDS011;27010;47.718;12.912;2024-01-30T08:09:29;1.03;;;0.43;;
41275;SDS011;27010;47.718;12.912;2024-01-30T08:12:31;1.97;;;1.30;;
41275;SDS011;27010;47.718;12.912;2024-01-30T08:15:33;2.17;;;1.33;;
41275;SDS011;27010;47.718;12.912;2024-01-30T08:18:35;3.47;;;1.30;;
41275;SDS011;27010;47.718;12.912;2024-01-30T08:21:38;1.73;;;0.90;;
41275;SDS011;27010;47.718;12.912;2024-01-30T08:24:40;1.13;;;0.77;;
41275;SDS011;27010;47.718;12.912;2024-01-30T08:27:43;2.97;;;0.60;;
41275;SDS011;27010;47.718;12.912;2024-01-30T08:30:45;1.10;;;0.70;;
41275;SDS011;27010;47.718;12.912;2024-01-30T08:33:48;0.80;;;0.53;;
41275;SDS011;27010;47.718;12.912;2024-01-30T08:36:51;1.50;;;0.83;;
41275;SDS011;27010;47.718;12.912;2024-01-30T08:39:53;1.03;;;0.73;;
41275;SDS011;27010;47.718;12.912;2024-01-30T08:42:56;1.03;;;0.70;;
41275;SDS011;27010;47.718;12.912;2024-01-30T08:46:01;0.90;;;0.70;;
41275;SDS011;27010;47.718;12.912;2024-01-30T08:49:03;0.93;;;0.60;;
41275;SDS011;27010;47.718;12.912;2024-01-30T08:52:10;1.37;;;0.70;;
41275;SDS011;27010;47.718;12.912;2024-01-30T08:55:12;1.33;;;0.63;;
41275;SDS011;27010;47.718;12.912;2024-01-30T08:58:15;2.90;;;0.87;;
41275;SDS011;27010;47.718;12.912;2024-01-30T09:01:20;3.33;;;0.70;;
41275;SDS011;27010;47.718;12.912;2024-01-30T09:04:22;1.00;;;0.70;;
41275;SDS011;27010;47.718;12.912;2024-01-30T09:07:26;0.80;;;0.60;;
41275;SDS011;27010;47.718;12.912;2024-01-30T09:10:29;6.60;;;1.00;;
41275;SDS011;27010;47.718;12.912;2024-01-30T09:13:31;0.70;;;0.53;;
41275;SDS011;27010;47.718;12.912;2024-01-30T09:16:33;1.53;;;1.10;;
41275;SDS011;27010;47.718;12.912;2024-01-30T09:19:35;1.60;;;0.93;;
41275;SDS011;27010;47.718;12.912;2024-01-30T09:22:38;1.70;;;1.30;;
41275;SDS011;27010;47.718;12.912;2024-01-30T09:25:40;1.90;;;1.13;;
41275;SDS011;27010;47.718;12.912;2024-01-30T09:28:42;2.40;;;0.90;;
41275;SDS011;27010;47.718;12.912;2024-01-30T09:31:45;1.13;;;0.70;;
41275;SDS011;27010;47.718;12.912;2024-01-30T09:34:47;2.00;;;1.10;;
41275;SDS011;27010;47.718;12.912;2024-01-30T09:37:49;3.83;;;0.93;;
41275;SDS011;27010;47.718;12.912;2024-01-30T09:40:56;1.23;;;1.00;;
41275;SDS011;27010;47.718;12.912;2024-01-30T09:44:01;1.90;;;0.97;;
41275;SDS011;27010;47.718;12.912;2024-01-30T09:47:04;5.53;;;0.80;;
41275;SDS011;27010;47.718;12.912;2024-01-30T09:50:08;4.27;;;0.57;;
41275;SDS011;27010;47.718;12.912;2024-01-30T09:53:10;3.40;;;0.70;;
41275;SDS011;27010;47.718;12.912;2024-01-30T09:56:13;3.30;;;0.80;;
41275;SDS011;27010;47.718;12.912;2024-01-30T09:59:15;0.60;;;0.47;;
41275;SDS011;27010;47.718;12.912;2024-01-30T10:02:18;4.10;;;0.63;;
41275;SDS011;27010;47.718;12.912;2024-01-30T10:05:20;1.07;;;0.67;;
41275;SDS011;27010;47.718;12.912;2024-01-30T10:08:29;1.40;;;0.80;;
41275;SDS011;27010;47.718;12.912;2024-01-30T10:11:31;1.47;;;0.80;;
41275;SDS011;27010;47.718;12.912;2024-01-30T10:14:34;1.37;;;0.80;;
41275;SDS011;27010;47.718;12.912;2024-01-30T10:17:39;0.90;;;0.83;;
41275;SDS011;27010;47.718;12.912;2024-01-30T10:20:42;1.20;;;0.50;;
41275;SDS011;27010;47.718;12.912;2024-01-30T10:23:44;1.60;;;0.63;;
41275;SDS011;27010;47.718;12.912;2024-01-30T10:26:48;1.47;;;0.80;;
41275;SDS011;27010;47.718;12.912;2024-01-30T10:29:50;0.70;;;0.53;;
41275;SDS011;27010;47.718;12.912;2024-01-30T10:32:52;1.13;;;0.60;;
41275;SDS011;27010;47.718;12.912;2024-01-30T10:35:56;1.27;;;0.53;;
41275;SDS011;27010;47.718;12.912;2024-01-30T10:39:02;1.47;;;0.70;;
41275;SDS011;27010;47.718;12.912;2024-01-30T10:42:15;1.07;;;0.60;;
41275;SDS011;27010;47.718;12.912;2024-01-30T10:45:19;3.33;;;0.70;;
41275;SDS011;27010;47.718;12.912;2024-01-30T10:48:22;0.80;;;0.60;;
41275;SDS011;27010;47.718;12.912;2024-01-30T10:51:30;1.63;;;0.50;;
41275;SDS011;27010;47.718;12.912;2024-01-30T10:54:33;0.80;;;0.40;;
41275;SDS011;27010;47.718;12.912;2024-01-30T10:57:37;4.47;;;0.50;;
41275;SDS011;27010;47.718;12.912;2024-01-30T11:00:39;0.83;;;0.50;;
41275;SDS011;27010;47.718;12.912;2024-01-30T11:03:42;0.90;;;0.40;;
41275;SDS011;27010;47.718;12.912;2024-01-30T11:06:44;0.83;;;0.30;;
41275;SDS011;27010;47.718;12.912;2024-01-30T11:09:50;2.03;;;0.50;;
41275;SDS011;27010;47.718;12.912;2024-01-30T11:12:53;1.67;;;0.70;;
41275;SDS011;27010;47.718;12.912;2024-01-30T11:15:55;1.70;;;0.60;;
41275;SDS011;27010;47.718;12.912;2024-01-30T11:18:59;1.20;;;0.50;;
41275;SDS011;27010;47.718;12.912;2024-01-30T11:22:02;2.07;;;0.70;;
41275;SDS011;27010;47.718;12.912;2024-01-30T11:25:15;2.40;;;1.33;;
41275;SDS011;27010;47.718;12.912;2024-01-30T11:28:23;0.60;;;0.60;;
41275;SDS011;27010;47.718;12.912;2024-01-30T11:31:26;1.37;;;0.67;;
41275;SDS011;27010;47.718;12.912;2024-01-30T11:34:28;0.60;;;0.50;;
41275;SDS011;27010;47.718;12.912;2024-01-30T11:37:30;5.03;;;0.80;;
41275;SDS011;27010;47.718;12.912;2024-01-30T11:40:33;4.40;;;1.33;;
41275;SDS011;27010;47.718;12.912;2024-01-30T11:43:36;1.37;;;0.80;;
41275;SDS011;27010;47.718;12.912;2024-01-30T11:46:40;6.23;;;0.80;;
41275;SDS011;27010;47.718;12.912;2024-01-30T11:49:43;2.13;;;1.07;;
41275;SDS011;27010;47.718;12.912;2024-01-30T11:52:45;0.90;;;0.73;;
41275;SDS011;27010;47.718;12.912;2024-01-30T11:55:50;0.90;;;0.63;;
41275;SDS011;27010;47.718;12.912;2024-01-30T11:58:53;0.60;;;0.37;;
41275;SDS011;27010;47.718;12.912;2024-01-30T12:01:55;0.77;;;0.50;;
41275;SDS011;27010;47.718;12.912;2024-01-30T12:04:57;1.23;;;0.70;;
41275;SDS011;27010;47.718;12.912;2024-01-30T12:08:00;3.73;;;0.83;;
41275;SDS011;27010;47.718;12.912;2024-01-30T12:11:06;1.53;;;0.83;;
41275;SDS011;27010;47.718;12.912;2024-01-30T12:14:08;1.50;;;1.20;;
41275;SDS011;27010;47.718;12.912;2024-01-30T12:17:10;2.63;;;1.20;;
41275;SDS011;27010;47.718;12.912;2024-01-30T12:20:13;0.80;;;0.80;;
41275;SDS011;27010;47.718;12.912;2024-01-30T12:23:17;3.13;;;0.93;;
41275;SDS011;27010;47.718;12.912;2024-01-30T12:26:21;3.90;;;1.20;;
41275;SDS011;27010;47.718;12.912;2024-01-30T12:29:23;1.47;;;0.70;;
41275;SDS011;27010;47.718;12.912;2024-01-30T12:32:25;3.20;;;1.30;;
41275;SDS011;27010;47.718;12.912;2024-01-30T12:35:27;2.60;;;1.00;;
41275;SDS011;27010;47.718;12.912;2024-01-30T12:38:34;2.77;;;1.00;;
41275;SDS011;27010;47.718;12.912;2024-01-30T12:41:37;1.83;;;0.70;;
41275;SDS011;27010;47.718;12.912;2024-01-30T12:44:39;2.03;;;0.60;;
41275;SDS011;27010;47.718;12.912;2024-01-30T12:47:42;4.77;;;0.67;;
41275;SDS011;27010;47.718;12.912;2024-01-30T12:50:44;2.93;;;0.70;;
41275;SDS011;27010;47.718;12.912;2024-01-30T12:53:46;5.70;;;2.93;;
41275;SDS011;27010;47.718;12.912;2024-01-30T12:56:49;1.97;;;1.17;;
41275;SDS011;27010;47.718;12.912;2024-01-30T12:59:52;1.93;;;0.40;;
41275;SDS011;27010;47.718;12.912;2024-01-30T13:02:54;2.00;;;0.80;;
41275;SDS011;27010;47.718;12.912;2024-01-30T13:05:56;2.10;;;0.60;;
41275;SDS011;27010;47.718;12.912;2024-01-30T13:08:59;3.83;;;0.60;;
41275;SDS011;27010;47.718;12.912;2024-01-30T13:12:01;2.37;;;0.40;;
41275;SDS011;27010;47.718;12.912;2024-01-30T13:15:03;0.63;;;0.43;;
41275;SDS011;27010;47.718;12.912;2024-01-30T13:18:07;0.60;;;0.60;;
41275;SDS011;27010;47.718;12.912;2024-01-30T13:21:09;2.50;;;0.60;;
41275;SDS011;27010;47.718;12.912;2024-01-30T13:24:11;0.97;;;0.40;;
41275;SDS011;27010;47.718;12.912;2024-01-30T13:27:13;4.10;;;0.80;;
41275;SDS011;27010;47.718;12.912;2024-01-30T13:30:15;1.20;;;0.80;;
41275;SDS011;27010;47.718;12.912;2024-01-30T13:33:18;2.63;;;0.80;;
41275;SDS011;27010;47.718;12.912;2024-01-30T13:36:21;1.73;;;0.60;;
41275;SDS011;27010;47.718;12.912;2024-01-30T13:39:23;0.83;;;0.40;;
41275;SDS011;27010;47.718;12.912;2024-01-30T13:42:33;1.43;;;0.80;;
41275;SDS011;27010;47.718;12.912;2024-01-30T13:45:35;1.80;;;0.97;;
41275;SDS011;27010;47.718;12.912;2024-01-30T13:48:38;2.20;;;0.60;;
41275;SDS011;27010;47.718;12.912;2024-01-30T13:51:40;1.30;;;0.63;;
41275;SDS011;27010;47.718;12.912;2024-01-30T13:54:42;4.40;;;0.60;;
41275;SDS011;27010;47.718;12.912;2024-01-30T13:57:44;4.07;;;0.50;;
41275;SDS011;27010;47.718;12.912;2024-01-30T14:00:50;1.33;;;0.60;;
41275;SDS011;27010;47.718;12.912;2024-01-30T14:03:52;3.20;;;0.70;;
41275;SDS011;27010;47.718;12.912;2024-01-30T14:06:54;2.03;;;0.93;;
41275;SDS011;27010;47.718;12.912;2024-01-30T14:10:05;2.63;;;0.60;;
41275;SDS011;27010;47.718;12.912;2024-01-30T14:13:12;4.23;;;0.57;;
41275;SDS011;27010;47.718;12.912;2024-01-30T14:16:15;0.80;;;0.67;;
41275;SDS011;27010;47.718;12.912;2024-01-30T14:19:17;5.50;;;0.80;;
41275;SDS011;27010;47.718;12.912;2024-01-30T14:22:19;2.90;;;0.70;;
41275;SDS011;27010;47.718;12.912;2024-01-30T14:25:21;4.53;;;0.70;;
41275;SDS011;27010;47.718;12.912;2024-01-30T14:28:23;3.00;;;0.70;;
41275;SDS011;27010;47.718;12.912;2024-01-30T14:31:25;2.83;;;0.50;;
41275;SDS011;27010;47.718;12.912;2024-01-30T14:34:27;2.33;;;0.70;;
41275;SDS011;27010;47.718;12.912;2024-01-30T14:37:30;4.00;;;0.70;;
41275;SDS011;27010;47.718;12.912;2024-01-30T14:40:32;4.47;;;0.80;;
41275;SDS011;27010;47.718;12.912;2024-01-30T14:43:34;1.50;;;0.50;;
41275;SDS011;27010;47.718;12.912;2024-01-30T14:46:36;3.73;;;0.70;;
41275;SDS011;27010;47.718;12.912;2024-01-30T14:49:38;3.03;;;0.70;;
41275;SDS011;27010;47.718;12.912;2024-01-30T14:52:40;0.80;;;0.40;;
41275;SDS011;27010;47.718;12.912;2024-01-30T14:55:43;0.80;;;0.60;;
41275;SDS011;27010;47.718;12.912;2024-01-30T14:58:45;2.10;;;0.63;;
41275;SDS011;27010;47.718;12.912;2024-01-30T15:01:47;1.67;;;0.60;;
41275;SDS011;27010;47.718;12.912;2024-01-30T15:04:49;3.37;;;0.80;;
41275;SDS011;27010;47.718;12.912;2024-01-30T15:07:52;2.57;;;0.80;;
41275;SDS011;27010;47.718;12.912;2024-01-30T15:10:54;4.17;;;0.57;;
41275;SDS011;27010;47.718;12.912;2024-01-30T15:13:57;1.33;;;0.80;;
41275;SDS011;27010;47.718;12.912;2024-01-30T15:16:59;2.33;;;0.73;;
41275;SDS011;27010;47.718;12.912;2024-01-30T15:20:01;4.10;;;0.80;;
41275;SDS011;27010;47.718;12.912;2024-01-30T15:23:06;2.50;;;0.70;;
41275;SDS011;27010;47.718;12.912;2024-01-30T15:26:08;1.77;;;0.73;;
41275;SDS011;27010;47.718;12.912;2024-01-30T15:29:10;3.50;;;1.00;;
41275;SDS011;27010;47.718;12.912;2024-01-30T15:32:12;2.47;;;0.80;;
41275;SDS011;27010;47.718;12.912;2024-01-30T15:35:14;1.13;;;0.80;;
41275;SDS011;27010;47.718;12.912;2024-01-30T15:38:16;1.47;;;0.70;;
41275;SDS011;27010;47.718;12.912;2024-01-30T15:41:20;1.57;;;0.70;;
41275;SDS011;27010;47.718;12.912;2024-01-30T15:44:22;3.07;;;1.00;;
41275;SDS011;27010;47.718;12.912;2024-01-30T15:47:25;6.27;;;1.10;;
41275;SDS011;27010;47.718;12.912;2024-01-30T15:50:27;4.30;;;0.87;;
41275;SDS011;27010;47.718;12.912;2024-01-30T15:53:29;1.93;;;0.80;;
41275;SDS011;27010;47.718;12.912;2024-01-30T15:56:31;1.47;;;0.70;;
41275;SDS011;27010;47.718;12.912;2024-01-30T15:59:34;7.13;;;0.80;;
41275;SDS011;27010;47.718;12.912;2024-01-30T16:02:36;3.07;;;1.00;;
41275;SDS011;27010;47.718;12.912;2024-01-30T16:05:38;1.07;;;0.67;;
41275;SDS011;27010;47.718;12.912;2024-01-30T16:08:41;3.90;;;0.63;;
41275;SDS011;27010;47.718;12.912;2024-01-30T16:11:43;2.63;;;0.70;;
41275;SDS011;27010;47.718;12.912;2024-01-30T16:14:46;6.20;;;0.60;;
41275;SDS011;27010;47.718;12.912;2024-01-30T16:17:50;1.13;;;0.80;;
41275;SDS011;27010;47.718;12.912;2024-01-30T16:20:52;1.80;;;0.70;;
41275;SDS011;27010;47.718;12.912;2024-01-30T16:23:54;4.13;;;0.90;;
41275;SDS011;27010;47.718;12.912;2024-01-30T16:26:57;1.27;;;0.53;;
41275;SDS011;27010;47.718;12.912;2024-01-30T16:30:00;5.53;;;1.00;;
41275;SDS011;27010;47.718;12.912;2024-01-30T16:33:03;1.87;;;1.07;;
41275;SDS011;27010;47.718;12.912;2024-01-30T16:36:06;2.00;;;0.70;;
41275;SDS011;27010;47.718;12.912;2024-01-30T16:39:08;1.20;;;0.83;;
41275;SDS011;27010;47.718;12.912;2024-01-30T16:42:11;0.90;;;0.60;;
41275;SDS011;27010;47.718;12.912;2024-01-30T16:45:14;1.00;;;0.60;;
41275;SDS011;27010;47.718;12.912;2024-01-30T16:48:16;6.37;;;1.00;;
41275;SDS011;27010;47.718;12.912;2024-01-30T16:51:19;2.10;;;0.60;;
41275;SDS011;27010;47.718;12.912;2024-01-30T16:54:21;1.50;;;0.70;;
41275;SDS011;27010;47.718;12.912;2024-01-30T16:57:24;0.90;;;0.70;;
41275;SDS011;27010;47.718;12.912;2024-01-30T17:00:26;1.83;;;0.60;;
41275;SDS011;27010;47.718;12.912;2024-01-30T17:03:28;1.67;;;0.57;;
41275;SDS011;27010;47.718;12.912;2024-01-30T17:06:30;1.63;;;0.70;;
41275;SDS011;27010;47.718;12.912;2024-01-30T17:09:32;1.23;;;0.60;;
41275;SDS011;27010;47.718;12.912;2024-01-30T17:12:34;0.57;;;0.40;;
41275;SDS011;27010;47.718;12.912;2024-01-30T17:15:36;1.10;;;0.77;;
41275;SDS011;27010;47.718;12.912;2024-01-30T17:18:39;4.27;;;0.90;;
41275;SDS011;27010;47.718;12.912;2024-01-30T17:21:41;2.97;;;0.77;;
41275;SDS011;27010;47.718;12.912;2024-01-30T17:24:44;1.67;;;0.93;;
41275;SDS011;27010;47.718;12.912;2024-01-30T17:27:51;3.50;;;0.80;;
41275;SDS011;27010;47.718;12.912;2024-01-30T17:30:54;1.63;;;0.80;;
41275;SDS011;27010;47.718;12.912;2024-01-30T17:33:56;3.20;;;1.07;;
41275;SDS011;27010;47.718;12.912;2024-01-30T17:36:59;1.57;;;0.57;;
41275;SDS011;27010;47.718;12.912;2024-01-30T17:40:01;1.37;;;0.57;;
41275;SDS011;27010;47.718;12.912;2024-01-30T17:43:05;1.23;;;0.70;;
41275;SDS011;27010;47.718;12.912;2024-01-30T17:46:07;1.17;;;0.60;;
41275;SDS011;27010;47.718;12.912;2024-01-30T17:49:10;1.03;;;0.60;;
41275;SDS011;27010;47.718;12.912;2024-01-30T17:52:13;4.77;;;1.20;;
41275;SDS011;27010;47.718;12.912;2024-01-30T17:55:15;1.47;;;1.00;;
41275;SDS011;27010;47.718;12.912;2024-01-30T17:58:17;2.20;;;1.40;;
41275;SDS011;27010;47.718;12.912;2024-01-30T18:01:20;3.37;;;1.10;;
41275;SDS011;27010;47.718;12.912;2024-01-30T18:04:22;2.97;;;1.87;;
41275;SDS011;27010;47.718;12.912;2024-01-30T18:07:24;3.47;;;2.87;;